createdAt,value
2019-01-11T00:01:45.226Z,8.03
2019-01-11T00:06:51.623Z,12.10
2019-01-11T00:11:58.039Z,6.43
2019-01-11T00:17:07.393Z,8.10
2019-01-11T00:22:14.306Z,6.87
2019-01-11T00:27:20.647Z,9.37
2019-01-11T00:32:28.878Z,10.47
2019-01-11T00:37:35.253Z,8.97
2019-01-11T00:42:43.331Z,8.60
2019-01-11T00:47:51.386Z,12.60
2019-01-11T00:52:57.490Z,11.23
2019-01-11T00:58:03.436Z,9.30
2019-01-11T01:03:09.828Z,9.17
2019-01-11T01:08:15.958Z,9.33
2019-01-11T01:13:22.616Z,9.23
2019-01-11T01:18:28.446Z,11.27
2019-01-11T01:23:36.016Z,12.77
2019-01-11T01:28:42.284Z,10.53
2019-01-11T01:33:48.308Z,11.57
2019-01-11T01:38:54.062Z,15.23
2019-01-11T01:43:59.847Z,11.87
2019-01-11T01:49:06.565Z,12.67
2019-01-11T01:54:14.213Z,13.20
2019-01-11T01:59:20.439Z,15.23
2019-01-11T02:04:26.609Z,16.53
2019-01-11T02:09:34.097Z,18.87
2019-01-11T02:14:41.182Z,14.97
2019-01-11T02:19:48.453Z,20.10
2019-01-11T02:24:57.261Z,18.47
2019-01-11T02:30:04.163Z,20.33
2019-01-11T02:35:10.870Z,17.90
2019-01-11T02:40:19.043Z,20.97
2019-01-11T02:45:26.634Z,19.00
2019-01-11T02:50:32.840Z,20.57
2019-01-11T02:55:41.106Z,20.67
2019-01-11T03:00:48.035Z,23.27
2019-01-11T03:05:54.466Z,24.57
2019-01-11T03:11:02.266Z,29.47
2019-01-11T03:16:08.942Z,27.50
2019-01-11T03:21:15.015Z,25.17
2019-01-11T03:26:21.431Z,31.83
2019-01-11T03:31:29.437Z,23.60
2019-01-11T03:36:36.394Z,30.00
2019-01-11T03:41:44.324Z,24.03
2019-01-11T03:46:50.952Z,28.23
2019-01-11T03:51:59.032Z,27.57
2019-01-11T03:57:05.507Z,24.73
2019-01-11T04:02:12.403Z,29.50
2019-01-11T04:07:20.984Z,25.40
2019-01-11T04:12:27.600Z,26.23
2019-01-11T04:17:34.283Z,27.53
2019-01-11T04:22:42.562Z,27.20
2019-01-11T04:27:50.202Z,28.03
2019-01-11T04:32:57.244Z,28.87
2019-01-11T04:38:04.008Z,28.33
2019-01-11T04:43:10.773Z,33.13
2019-01-11T04:48:17.715Z,29.13
2019-01-11T04:53:24.487Z,27.90
2019-01-11T04:58:31.823Z,29.27
2019-01-11T05:03:39.482Z,22.80
2019-01-11T05:08:45.336Z,27.17
2019-01-11T05:13:52.377Z,22.30
2019-01-11T05:18:58.699Z,24.23
2019-01-11T05:24:05.747Z,24.73
2019-01-11T05:29:12.108Z,26.10
2019-01-11T05:34:18.938Z,20.30
2019-01-11T05:39:25.375Z,25.53
2019-01-11T05:44:32.385Z,19.53
2019-01-11T05:49:38.652Z,21.87
2019-01-11T05:54:44.992Z,18.70
2019-01-11T05:59:52.058Z,20.63
2019-01-11T06:04:59.636Z,21.27
2019-01-11T06:10:12.842Z,20.30
2019-01-11T06:15:19.575Z,19.67
2019-01-11T06:20:30.183Z,18.53
2019-01-11T06:25:35.606Z,19.83
2019-01-11T06:30:43.415Z,20.37
2019-01-11T06:35:49.938Z,20.90
2019-01-11T06:40:56.503Z,23.00
2019-01-11T06:46:03.133Z,19.70
2019-01-11T06:51:09.680Z,20.53
2019-01-11T06:56:16.389Z,21.33
2019-01-11T07:01:23.119Z,20.97
2019-01-11T07:06:30.626Z,20.47
2019-01-11T07:11:37.822Z,20.77
2019-01-11T07:16:44.463Z,21.13
2019-01-11T07:21:51.535Z,19.83
2019-01-11T07:26:57.905Z,18.87
2019-01-11T07:32:04.611Z,20.50
2019-01-11T07:37:12.122Z,18.83
2019-01-11T07:42:20.039Z,15.70
2019-01-11T07:47:27.192Z,18.13
2019-01-11T07:52:34.145Z,18.27
2019-01-11T07:57:41.871Z,20.43
2019-01-11T08:02:51.888Z,14.83
2019-01-11T08:07:58.298Z,16.00
2019-01-11T08:13:06.023Z,15.70
2019-01-11T08:18:12.695Z,12.07
2019-01-11T08:23:19.238Z,13.60
2019-01-11T08:28:26.379Z,15.97
2019-01-11T08:33:32.938Z,12.23
2019-01-11T08:38:39.439Z,13.00
2019-01-11T08:43:46.089Z,10.20
2019-01-11T08:48:52.132Z,11.30
2019-01-11T08:53:58.953Z,14.00
2019-01-11T08:59:05.156Z,11.17
2019-01-11T09:04:12.229Z,13.60
2019-01-11T09:09:18.285Z,15.70
2019-01-11T09:14:29.115Z,15.87
2019-01-11T09:19:35.771Z,17.67
2019-01-11T09:24:43.383Z,17.00
2019-01-11T09:29:50.188Z,14.67
2019-01-11T09:34:56.248Z,15.40
2019-01-11T09:40:02.918Z,17.93
2019-01-11T09:45:11.230Z,17.40
2019-01-11T09:50:21.042Z,19.97
2019-01-11T09:55:27.536Z,21.10
2019-01-11T10:00:34.342Z,23.17
2019-01-11T10:05:43.394Z,24.07
2019-01-11T10:10:50.629Z,28.00
2019-01-11T10:15:58.776Z,40.40
2019-01-11T10:21:04.819Z,33.00
2019-01-11T10:26:12.111Z,37.80
2019-01-11T10:31:18.826Z,49.73
2019-01-11T10:36:25.247Z,41.33
2019-01-11T10:41:32.589Z,33.90
2019-01-11T10:46:40.269Z,41.70
2019-01-11T10:51:47.093Z,40.67
2019-01-11T10:56:52.924Z,34.90
2019-01-11T11:01:59.803Z,32.20
2019-01-11T11:07:05.604Z,31.90
2019-01-11T11:12:11.311Z,27.67
2019-01-11T11:17:17.098Z,21.67
2019-01-11T11:22:23.372Z,21.57
2019-01-11T11:27:29.206Z,22.87
2019-01-11T11:32:36.793Z,19.43
2019-01-11T11:37:43.381Z,24.40
2019-01-11T11:42:49.974Z,23.27
2019-01-11T11:47:56.308Z,20.53
2019-01-11T11:53:02.352Z,20.30
2019-01-11T11:58:08.337Z,19.17
2019-01-11T12:03:14.034Z,21.57
2019-01-11T12:08:20.188Z,18.10
2019-01-11T12:13:26.489Z,15.27
2019-01-11T12:18:32.822Z,15.67
2019-01-11T12:23:38.960Z,19.33
2019-01-11T12:28:45.258Z,22.50
2019-01-11T12:33:51.196Z,17.33
2019-01-11T12:38:56.857Z,20.33
2019-01-11T12:44:02.558Z,16.87
2019-01-11T12:49:08.375Z,19.50
2019-01-11T12:54:15.985Z,22.67
2019-01-11T12:59:23.354Z,24.50
2019-01-11T13:04:30.388Z,24.40
2019-01-11T13:09:38.669Z,23.50
2019-01-11T13:14:44.571Z,22.10
2019-01-11T13:19:50.167Z,24.90
2019-01-11T13:24:55.878Z,26.57
2019-01-11T13:30:01.786Z,19.33
2019-01-11T13:35:08.678Z,21.80
2019-01-11T13:40:19.876Z,19.43
2019-01-11T13:45:26.523Z,17.33
2019-01-11T13:50:37.658Z,19.37
2019-01-11T13:55:43.475Z,22.00
2019-01-11T14:00:49.379Z,19.77
2019-01-11T14:05:55.368Z,16.63
2019-01-11T14:11:01.365Z,18.73
2019-01-11T14:16:07.481Z,15.43
2019-01-11T14:21:13.994Z,17.57
2019-01-11T14:26:19.911Z,16.37
2019-01-11T14:31:25.755Z,18.17
2019-01-11T14:36:31.697Z,15.87
2019-01-11T14:41:37.888Z,17.83
2019-01-11T14:46:43.928Z,17.40
2019-01-11T14:51:50.120Z,16.10
2019-01-11T14:56:56.007Z,15.30
2019-01-11T15:02:02.098Z,18.17
2019-01-11T15:07:07.864Z,17.67
2019-01-11T15:12:14.047Z,18.67
2019-01-11T15:17:21.292Z,17.40
2019-01-11T15:22:31.340Z,17.47
2019-01-11T15:27:36.999Z,17.90
2019-01-11T15:32:43.178Z,19.63
2019-01-11T15:37:48.925Z,19.43
2019-01-11T15:42:55.042Z,18.67
2019-01-11T15:48:00.616Z,17.67
2019-01-11T15:53:06.228Z,17.47
2019-01-11T15:58:12.362Z,15.87
2019-01-11T16:03:18.621Z,19.33
2019-01-11T16:08:24.370Z,19.93
2019-01-11T16:13:29.948Z,18.47
2019-01-11T16:18:35.539Z,19.73
2019-01-11T16:23:41.383Z,19.53
2019-01-11T16:28:47.271Z,18.43
2019-01-11T16:33:52.884Z,17.83
2019-01-11T16:38:59.018Z,15.97
2019-01-11T16:44:06.179Z,17.07
2019-01-11T16:49:11.964Z,17.80
2019-01-11T16:54:18.638Z,22.03
2019-01-11T16:59:24.716Z,20.03
2019-01-11T17:04:30.418Z,18.53
2019-01-11T17:09:36.234Z,17.37
2019-01-11T17:14:43.068Z,16.50
2019-01-11T17:19:49.117Z,15.73
2019-01-11T17:24:55.494Z,17.80
2019-01-11T17:30:01.811Z,17.60
2019-01-11T17:35:07.848Z,16.23
2019-01-11T17:40:13.712Z,17.60
2019-01-11T17:45:20.437Z,14.43
2019-01-11T17:50:26.370Z,17.13
2019-01-11T17:55:33.909Z,13.80
2019-01-11T18:00:41.422Z,14.67
2019-01-11T18:05:48.220Z,16.10
2019-01-11T18:10:54.443Z,13.93
2019-01-11T18:16:00.177Z,13.43
2019-01-11T18:21:08.934Z,12.43
2019-01-11T18:26:15.383Z,17.27
2019-01-11T18:31:24.645Z,16.40
2019-01-11T18:36:32.048Z,13.87
2019-01-11T18:41:37.743Z,13.33
2019-01-11T18:46:43.910Z,14.20
2019-01-11T18:51:51.417Z,11.13
2019-01-11T18:56:59.741Z,13.60
2019-01-11T19:02:06.903Z,12.47
2019-01-11T19:07:13.650Z,14.23
2019-01-11T19:12:20.230Z,25.70
2019-01-11T19:17:27.168Z,13.67
2019-01-11T19:22:32.825Z,12.20
2019-01-11T19:27:39.403Z,15.80
2019-01-11T19:32:45.730Z,10.73
2019-01-11T19:37:51.391Z,21.07
2019-01-11T19:42:57.926Z,19.43
2019-01-11T19:48:04.188Z,17.43
2019-01-11T19:53:10.692Z,19.43
2019-01-11T19:58:17.279Z,16.80
2019-01-11T20:03:22.981Z,18.30
2019-01-11T20:08:30.183Z,22.33
2019-01-11T20:13:35.770Z,21.20
2019-01-11T20:18:42.126Z,22.30
2019-01-11T20:23:48.256Z,20.87
2019-01-11T20:28:54.176Z,18.60
2019-01-11T20:34:00.432Z,22.90
2019-01-11T20:39:08.098Z,26.57
2019-01-11T20:44:15.581Z,19.77
2019-01-11T20:49:24.622Z,29.13
2019-01-11T20:54:31.180Z,23.93
2019-01-11T20:59:36.947Z,21.63
2019-01-11T21:04:42.863Z,27.17
2019-01-11T21:09:49.118Z,29.53
2019-01-11T21:14:58.355Z,30.60
2019-01-11T21:20:05.889Z,20.03
2019-01-11T21:25:15.257Z,27.67
2019-01-11T21:30:23.781Z,27.30
2019-01-11T21:35:30.052Z,26.90
2019-01-11T21:40:36.467Z,23.27
2019-01-11T21:45:42.613Z,38.90
2019-01-11T21:50:48.549Z,30.23
2019-01-11T21:55:54.512Z,34.77
2019-01-11T22:01:00.420Z,24.73
2019-01-11T22:06:06.208Z,28.57
2019-01-11T22:11:12.714Z,34.50
2019-01-11T22:16:18.606Z,37.77
2019-01-11T22:21:25.616Z,34.70
2019-01-11T22:26:31.364Z,38.77
2019-01-11T22:31:37.360Z,32.00
2019-01-11T22:36:43.148Z,41.33
2019-01-11T22:41:49.366Z,42.23
2019-01-11T22:46:55.452Z,34.43
2019-01-11T22:52:02.563Z,30.27
2019-01-11T22:57:08.959Z,39.00
2019-01-11T23:02:17.681Z,35.67
2019-01-11T23:07:26.557Z,40.17
2019-01-11T23:12:35.222Z,42.17
2019-01-11T23:17:46.274Z,43.50
2019-01-11T23:22:52.095Z,34.13
2019-01-11T23:27:58.115Z,29.17
2019-01-11T23:33:04.330Z,41.37
2019-01-11T23:38:11.198Z,35.17
2019-01-11T23:43:16.844Z,41.40
2019-01-11T23:48:22.433Z,45.77
2019-01-11T23:53:29.616Z,47.43
2019-01-11T23:58:35.477Z,35.27
